sensor_id;sensor_type;location;lat;lon;timestamp;P1;durP1;ratioP1;P2;durP2;ratioP2
9449;SDS011;4763;48.370;10.874;2023-11-18T00:01:08;5.13;;;3.63;;
9449;SDS011;4763;48.370;10.874;2023-11-18T00:03:35;3.57;;;3.13;;
9449;SDS011;4763;48.370;10.874;2023-11-18T00:06:02;5.50;;;3.17;;
9449;SDS011;4763;48.370;10.874;2023-11-18T00:08:31;4.87;;;3.53;;
9449;SDS011;4763;48.370;10.874;2023-11-18T00:10:57;4.00;;;3.10;;
9449;SDS011;4763;48.370;10.874;2023-11-18T00:13:24;3.50;;;3.07;;
9449;SDS011;4763;48.370;10.874;2023-11-18T00:15:51;3.77;;;3.33;;
9449;SDS011;4763;48.370;10.874;2023-11-18T00:18:18;3.80;;;2.90;;
9449;SDS011;4763;48.370;10.874;2023-11-18T00:20:45;3.57;;;3.00;;
9449;SDS011;4763;48.370;10.874;2023-11-18T00:23:12;3.90;;;2.87;;
9449;SDS011;4763;48.370;10.874;2023-11-18T00:25:40;3.57;;;3.07;;
9449;SDS011;4763;48.370;10.874;2023-11-18T00:28:07;3.63;;;3.10;;
9449;SDS011;4763;48.370;10.874;2023-11-18T00:30:34;4.40;;;3.40;;
9449;SDS011;4763;48.370;10.874;2023-11-18T00:33:01;3.53;;;2.97;;
9449;SDS011;4763;48.370;10.874;2023-11-18T00:35:28;3.50;;;3.20;;
9449;SDS011;4763;48.370;10.874;2023-11-18T00:37:57;4.23;;;2.90;;
9449;SDS011;4763;48.370;10.874;2023-11-18T00:40:24;4.40;;;2.50;;
9449;SDS011;4763;48.370;10.874;2023-11-18T00:42:56;4.50;;;3.03;;
9449;SDS011;4763;48.370;10.874;2023-11-18T00:45:23;3.63;;;2.80;;
9449;SDS011;4763;48.370;10.874;2023-11-18T00:47:50;4.53;;;3.37;;
9449;SDS011;4763;48.370;10.874;2023-11-18T00:50:17;3.27;;;2.97;;
9449;SDS011;4763;48.370;10.874;2023-11-18T00:52:44;3.33;;;2.97;;
9449;SDS011;4763;48.370;10.874;2023-11-18T00:55:13;3.30;;;3.00;;
9449;SDS011;4763;48.370;10.874;2023-11-18T00:57:43;3.50;;;2.67;;
9449;SDS011;4763;48.370;10.874;2023-11-18T01:00:12;3.93;;;2.70;;
9449;SDS011;4763;48.370;10.874;2023-11-18T01:02:44;3.50;;;2.93;;
9449;SDS011;4763;48.370;10.874;2023-11-18T01:05:12;4.03;;;3.10;;
9449;SDS011;4763;48.370;10.874;2023-11-18T01:07:39;3.73;;;3.03;;
9449;SDS011;4763;48.370;10.874;2023-11-18T01:10:07;3.67;;;2.60;;
9449;SDS011;4763;48.370;10.874;2023-11-18T01:12:35;3.13;;;2.63;;
9449;SDS011;4763;48.370;10.874;2023-11-18T01:15:02;4.37;;;2.77;;
9449;SDS011;4763;48.370;10.874;2023-11-18T01:17:31;4.00;;;2.90;;
9449;SDS011;4763;48.370;10.874;2023-11-18T01:19:58;4.23;;;3.23;;
9449;SDS011;4763;48.370;10.874;2023-11-18T01:22:26;3.87;;;3.30;;
9449;SDS011;4763;48.370;10.874;2023-11-18T01:24:58;3.80;;;3.20;;
9449;SDS011;4763;48.370;10.874;2023-11-18T01:27:25;3.13;;;2.50;;
9449;SDS011;4763;48.370;10.874;2023-11-18T01:29:52;3.00;;;2.70;;
9449;SDS011;4763;48.370;10.874;2023-11-18T01:32:19;8.13;;;3.23;;
9449;SDS011;4763;48.370;10.874;2023-11-18T01:34:47;2.73;;;2.50;;
9449;SDS011;4763;48.370;10.874;2023-11-18T01:37:15;3.10;;;2.70;;
9449;SDS011;4763;48.370;10.874;2023-11-18T01:39:42;2.97;;;2.60;;
9449;SDS011;4763;48.370;10.874;2023-11-18T01:42:09;3.53;;;2.83;;
9449;SDS011;4763;48.370;10.874;2023-11-18T01:44:36;4.13;;;3.23;;
9449;SDS011;4763;48.370;10.874;2023-11-18T01:47:03;4.17;;;2.73;;
9449;SDS011;4763;48.370;10.874;2023-11-18T01:49:35;3.20;;;2.90;;
9449;SDS011;4763;48.370;10.874;2023-11-18T01:52:06;4.13;;;3.20;;
9449;SDS011;4763;48.370;10.874;2023-11-18T01:54:34;4.10;;;2.93;;
9449;SDS011;4763;48.370;10.874;2023-11-18T01:57:04;3.47;;;3.17;;
9449;SDS011;4763;48.370;10.874;2023-11-18T01:59:34;3.40;;;3.10;;
9449;SDS011;4763;48.370;10.874;2023-11-18T02:02:03;3.33;;;2.80;;
9449;SDS011;4763;48.370;10.874;2023-11-18T02:04:31;2.63;;;2.33;;
9449;SDS011;4763;48.370;10.874;2023-11-18T02:06:58;3.20;;;2.90;;
9449;SDS011;4763;48.370;10.874;2023-11-18T02:09:30;2.83;;;2.63;;
9449;SDS011;4763;48.370;10.874;2023-11-18T02:11:59;3.40;;;2.90;;
9449;SDS011;4763;48.370;10.874;2023-11-18T02:14:31;2.97;;;2.67;;
9449;SDS011;4763;48.370;10.874;2023-11-18T02:17:02;2.63;;;2.43;;
9449;SDS011;4763;48.370;10.874;2023-11-18T02:19:29;2.87;;;2.63;;
9449;SDS011;4763;48.370;10.874;2023-11-18T02:21:56;3.33;;;2.90;;
9449;SDS011;4763;48.370;10.874;2023-11-18T02:24:24;2.87;;;2.43;;
9449;SDS011;4763;48.370;10.874;2023-11-18T02:26:53;2.33;;;2.13;;
9449;SDS011;4763;48.370;10.874;2023-11-18T02:29:22;2.57;;;2.20;;
9449;SDS011;4763;48.370;10.874;2023-11-18T02:31:50;3.13;;;2.63;;
9449;SDS011;4763;48.370;10.874;2023-11-18T02:34:22;2.97;;;2.67;;
9449;SDS011;4763;48.370;10.874;2023-11-18T02:36:53;3.60;;;2.87;;
9449;SDS011;4763;48.370;10.874;2023-11-18T02:39:26;2.63;;;2.40;;
9449;SDS011;4763;48.370;10.874;2023-11-18T02:41:57;3.07;;;2.77;;
9449;SDS011;4763;48.370;10.874;2023-11-18T02:44:27;2.83;;;2.60;;
9449;SDS011;4763;48.370;10.874;2023-11-18T02:46:57;3.60;;;2.50;;
9449;SDS011;4763;48.370;10.874;2023-11-18T02:49:24;3.33;;;2.80;;
9449;SDS011;4763;48.370;10.874;2023-11-18T02:51:51;2.43;;;2.23;;
9449;SDS011;4763;48.370;10.874;2023-11-18T02:54:18;3.77;;;2.40;;
9449;SDS011;4763;48.370;10.874;2023-11-18T02:56:45;2.60;;;2.40;;
9449;SDS011;4763;48.370;10.874;2023-11-18T02:59:13;3.33;;;2.80;;
9449;SDS011;4763;48.370;10.874;2023-11-18T03:01:40;3.10;;;2.80;;
9449;SDS011;4763;48.370;10.874;2023-11-18T03:04:06;2.90;;;2.60;;
9449;SDS011;4763;48.370;10.874;2023-11-18T03:06:33;3.63;;;2.70;;
9449;SDS011;4763;48.370;10.874;2023-11-18T03:09:00;3.33;;;3.03;;
9449;SDS011;4763;48.370;10.874;2023-11-18T03:11:27;4.00;;;3.23;;
9449;SDS011;4763;48.370;10.874;2023-11-18T03:13:55;5.17;;;3.63;;
9449;SDS011;4763;48.370;10.874;2023-11-18T03:16:23;3.80;;;3.17;;
9449;SDS011;4763;48.370;10.874;2023-11-18T03:18:50;3.70;;;3.30;;
9449;SDS011;4763;48.370;10.874;2023-11-18T03:21:17;4.30;;;3.60;;
9449;SDS011;4763;48.370;10.874;2023-11-18T03:23:45;4.30;;;3.50;;
9449;SDS011;4763;48.370;10.874;2023-11-18T03:26:12;3.53;;;3.10;;
9449;SDS011;4763;48.370;10.874;2023-11-18T03:28:39;3.83;;;3.10;;
9449;SDS011;4763;48.370;10.874;2023-11-18T03:31:07;3.53;;;3.03;;
9449;SDS011;4763;48.370;10.874;2023-11-18T03:33:35;4.17;;;3.53;;
9449;SDS011;4763;48.370;10.874;2023-11-18T03:36:02;4.33;;;3.53;;
9449;SDS011;4763;48.370;10.874;2023-11-18T03:38:29;5.33;;;3.93;;
9449;SDS011;4763;48.370;10.874;2023-11-18T03:40:56;3.40;;;3.10;;
9449;SDS011;4763;48.370;10.874;2023-11-18T03:43:23;4.07;;;3.40;;
9449;SDS011;4763;48.370;10.874;2023-11-18T03:45:50;4.07;;;3.50;;
9449;SDS011;4763;48.370;10.874;2023-11-18T03:48:21;4.03;;;3.57;;
9449;SDS011;4763;48.370;10.874;2023-11-18T03:50:49;4.13;;;3.67;;
9449;SDS011;4763;48.370;10.874;2023-11-18T03:53:16;4.67;;;4.00;;
9449;SDS011;4763;48.370;10.874;2023-11-18T03:55:43;4.23;;;3.53;;
9449;SDS011;4763;48.370;10.874;2023-11-18T03:58:10;6.47;;;4.37;;
9449;SDS011;4763;48.370;10.874;2023-11-18T04:00:37;4.37;;;3.80;;
9449;SDS011;4763;48.370;10.874;2023-11-18T04:03:04;4.13;;;3.30;;
9449;SDS011;4763;48.370;10.874;2023-11-18T04:05:32;6.17;;;3.90;;
9449;SDS011;4763;48.370;10.874;2023-11-18T04:08:01;4.03;;;3.60;;
9449;SDS011;4763;48.370;10.874;2023-11-18T04:10:28;3.90;;;3.43;;
9449;SDS011;4763;48.370;10.874;2023-11-18T04:12:54;4.00;;;3.57;;
9449;SDS011;4763;48.370;10.874;2023-11-18T04:15:22;4.83;;;4.33;;
9449;SDS011;4763;48.370;10.874;2023-11-18T04:17:49;4.17;;;3.47;;
9449;SDS011;4763;48.370;10.874;2023-11-18T04:20:17;4.73;;;3.93;;
9449;SDS011;4763;48.370;10.874;2023-11-18T04:22:44;6.03;;;4.10;;
9449;SDS011;4763;48.370;10.874;2023-11-18T04:25:12;4.87;;;3.90;;
9449;SDS011;4763;48.370;10.874;2023-11-18T04:27:40;6.03;;;5.20;;
9449;SDS011;4763;48.370;10.874;2023-11-18T04:30:07;4.60;;;3.67;;
9449;SDS011;4763;48.370;10.874;2023-11-18T04:32:34;4.80;;;4.00;;
9449;SDS011;4763;48.370;10.874;2023-11-18T04:35:01;4.13;;;3.73;;
9449;SDS011;4763;48.370;10.874;2023-11-18T04:37:32;5.73;;;3.67;;
9449;SDS011;4763;48.370;10.874;2023-11-18T04:39:59;4.80;;;4.00;;
9449;SDS011;4763;48.370;10.874;2023-11-18T04:42:28;4.10;;;3.70;;
9449;SDS011;4763;48.370;10.874;2023-11-18T04:44:55;6.43;;;4.07;;
9449;SDS011;4763;48.370;10.874;2023-11-18T04:47:22;6.33;;;4.47;;
9449;SDS011;4763;48.370;10.874;2023-11-18T04:49:50;5.77;;;3.40;;
9449;SDS011;4763;48.370;10.874;2023-11-18T04:52:17;5.17;;;4.20;;
9449;SDS011;4763;48.370;10.874;2023-11-18T04:54:44;4.97;;;4.10;;
9449;SDS011;4763;48.370;10.874;2023-11-18T04:57:13;6.30;;;4.07;;
9449;SDS011;4763;48.370;10.874;2023-11-18T04:59:41;5.90;;;3.73;;
9449;SDS011;4763;48.370;10.874;2023-11-18T05:02:08;6.43;;;4.83;;
9449;SDS011;4763;48.370;10.874;2023-11-18T05:04:34;3.97;;;3.57;;
9449;SDS011;4763;48.370;10.874;2023-11-18T05:07:02;5.27;;;3.40;;
9449;SDS011;4763;48.370;10.874;2023-11-18T05:09:29;4.47;;;3.90;;
9449;SDS011;4763;48.370;10.874;2023-11-18T05:11:57;4.80;;;4.00;;
9449;SDS011;4763;48.370;10.874;2023-11-18T05:14:24;4.10;;;3.70;;
9449;SDS011;4763;48.370;10.874;2023-11-18T05:16:52;4.93;;;4.17;;
9449;SDS011;4763;48.370;10.874;2023-11-18T05:19:19;6.13;;;3.90;;
9449;SDS011;4763;48.370;10.874;2023-11-18T05:21:46;5.47;;;4.37;;
9449;SDS011;4763;48.370;10.874;2023-11-18T05:24:14;5.20;;;4.03;;
9449;SDS011;4763;48.370;10.874;2023-11-18T05:26:41;5.00;;;4.03;;
9449;SDS011;4763;48.370;10.874;2023-11-18T05:29:08;4.73;;;4.20;;
9449;SDS011;4763;48.370;10.874;2023-11-18T05:31:35;5.47;;;4.23;;
9449;SDS011;4763;48.370;10.874;2023-11-18T05:34:03;3.97;;;3.57;;
9449;SDS011;4763;48.370;10.874;2023-11-18T05:36:30;5.83;;;4.40;;
9449;SDS011;4763;48.370;10.874;2023-11-18T05:39:02;3.97;;;3.33;;
9449;SDS011;4763;48.370;10.874;2023-11-18T05:41:30;4.10;;;3.57;;
9449;SDS011;4763;48.370;10.874;2023-11-18T05:43:57;5.10;;;3.77;;
9449;SDS011;4763;48.370;10.874;2023-11-18T05:46:24;3.93;;;3.20;;
9449;SDS011;4763;48.370;10.874;2023-11-18T05:48:54;4.37;;;3.37;;
9449;SDS011;4763;48.370;10.874;2023-11-18T05:51:24;4.60;;;3.83;;
9449;SDS011;4763;48.370;10.874;2023-11-18T05:53:52;4.10;;;3.70;;
9449;SDS011;4763;48.370;10.874;2023-11-18T05:56:20;4.10;;;3.23;;
9449;SDS011;4763;48.370;10.874;2023-11-18T05:58:48;4.20;;;3.50;;
9449;SDS011;4763;48.370;10.874;2023-11-18T06:01:15;5.13;;;3.97;;
9449;SDS011;4763;48.370;10.874;2023-11-18T06:03:43;6.10;;;4.27;;
9449;SDS011;4763;48.370;10.874;2023-11-18T06:06:11;4.30;;;3.70;;
9449;SDS011;4763;48.370;10.874;2023-11-18T06:08:42;4.47;;;3.60;;
9449;SDS011;4763;48.370;10.874;2023-11-18T06:11:09;5.17;;;3.77;;
9449;SDS011;4763;48.370;10.874;2023-11-18T06:13:39;4.57;;;3.80;;
9449;SDS011;4763;48.370;10.874;2023-11-18T06:16:08;5.20;;;4.17;;
9449;SDS011;4763;48.370;10.874;2023-11-18T06:18:39;7.13;;;4.70;;
9449;SDS011;4763;48.370;10.874;2023-11-18T06:21:07;4.50;;;4.00;;
9449;SDS011;4763;48.370;10.874;2023-11-18T06:23:39;6.67;;;5.30;;
9449;SDS011;4763;48.370;10.874;2023-11-18T06:26:08;22.83;;;12.00;;
9449;SDS011;4763;48.370;10.874;2023-11-18T06:28:36;21.53;;;11.97;;
9449;SDS011;4763;48.370;10.874;2023-11-18T06:31:04;18.97;;;12.80;;
9449;SDS011;4763;48.370;10.874;2023-11-18T06:33:35;6.50;;;4.77;;
9449;SDS011;4763;48.370;10.874;2023-11-18T06:36:03;4.50;;;3.80;;
9449;SDS011;4763;48.370;10.874;2023-11-18T06:38:30;7.17;;;4.87;;
9449;SDS011;4763;48.370;10.874;2023-11-18T06:40:59;5.57;;;4.13;;
9449;SDS011;4763;48.370;10.874;2023-11-18T06:43:29;4.70;;;3.73;;
9449;SDS011;4763;48.370;10.874;2023-11-18T06:46:16;5.13;;;4.17;;
9449;SDS011;4763;48.370;10.874;2023-11-18T06:48:45;4.63;;;3.57;;
9449;SDS011;4763;48.370;10.874;2023-11-18T06:51:13;4.87;;;3.83;;
9449;SDS011;4763;48.370;10.874;2023-11-18T06:53:40;5.23;;;4.17;;
9449;SDS011;4763;48.370;10.874;2023-11-18T06:56:08;5.37;;;3.90;;
9449;SDS011;4763;48.370;10.874;2023-11-18T06:58:37;5.90;;;4.40;;
9449;SDS011;4763;48.370;10.874;2023-11-18T07:01:05;5.37;;;4.50;;
9449;SDS011;4763;48.370;10.874;2023-11-18T07:03:31;6.73;;;4.50;;
9449;SDS011;4763;48.370;10.874;2023-11-18T07:05:58;4.87;;;4.43;;
9449;SDS011;4763;48.370;10.874;2023-11-18T07:08:25;11.33;;;7.67;;
9449;SDS011;4763;48.370;10.874;2023-11-18T07:10:52;7.00;;;5.17;;
9449;SDS011;4763;48.370;10.874;2023-11-18T07:13:19;6.30;;;4.87;;
9449;SDS011;4763;48.370;10.874;2023-11-18T07:15:49;6.47;;;3.70;;
9449;SDS011;4763;48.370;10.874;2023-11-18T07:18:16;4.70;;;4.07;;
9449;SDS011;4763;48.370;10.874;2023-11-18T07:20:47;6.33;;;4.53;;
9449;SDS011;4763;48.370;10.874;2023-11-18T07:23:13;8.20;;;5.53;;
9449;SDS011;4763;48.370;10.874;2023-11-18T07:25:42;5.83;;;4.50;;
9449;SDS011;4763;48.370;10.874;2023-11-18T07:28:09;6.20;;;4.30;;
9449;SDS011;4763;48.370;10.874;2023-11-18T07:30:36;6.57;;;4.70;;
9449;SDS011;4763;48.370;10.874;2023-11-18T07:33:04;8.17;;;5.50;;
9449;SDS011;4763;48.370;10.874;2023-11-18T07:35:33;7.67;;;5.53;;
9449;SDS011;4763;48.370;10.874;2023-11-18T07:38:01;5.73;;;5.03;;
9449;SDS011;4763;48.370;10.874;2023-11-18T07:40:28;5.90;;;4.67;;
9449;SDS011;4763;48.370;10.874;2023-11-18T07:42:55;7.40;;;4.93;;
9449;SDS011;4763;48.370;10.874;2023-11-18T07:45:22;5.33;;;4.60;;
9449;SDS011;4763;48.370;10.874;2023-11-18T07:47:49;6.50;;;4.97;;
9449;SDS011;4763;48.370;10.874;2023-11-18T07:50:18;7.20;;;5.27;;
9449;SDS011;4763;48.370;10.874;2023-11-18T07:52:46;7.90;;;6.07;;
9449;SDS011;4763;48.370;10.874;2023-11-18T07:55:13;6.03;;;4.47;;
9449;SDS011;4763;48.370;10.874;2023-11-18T07:57:40;6.43;;;5.00;;
9449;SDS011;4763;48.370;10.874;2023-11-18T08:00:08;6.17;;;4.63;;
9449;SDS011;4763;48.370;10.874;2023-11-18T08:02:35;7.47;;;5.27;;
9449;SDS011;4763;48.370;10.874;2023-11-18T08:05:03;8.73;;;5.83;;
9449;SDS011;4763;48.370;10.874;2023-11-18T08:07:33;7.20;;;5.60;;
9449;SDS011;4763;48.370;10.874;2023-11-18T08:10:00;7.27;;;5.77;;
9449;SDS011;4763;48.370;10.874;2023-11-18T08:12:29;8.70;;;7.43;;
9449;SDS011;4763;48.370;10.874;2023-11-18T08:14:56;10.97;;;7.20;;
9449;SDS011;4763;48.370;10.874;2023-11-18T08:17:24;8.50;;;6.67;;
9449;SDS011;4763;48.370;10.874;2023-11-18T08:19:51;7.53;;;5.23;;
9449;SDS011;4763;48.370;10.874;2023-11-18T08:22:18;7.70;;;5.63;;
9449;SDS011;4763;48.370;10.874;2023-11-18T08:24:49;9.60;;;5.00;;
9449;SDS011;4763;48.370;10.874;2023-11-18T08:27:16;7.67;;;5.80;;
9449;SDS011;4763;48.370;10.874;2023-11-18T08:29:44;9.77;;;6.13;;
9449;SDS011;4763;48.370;10.874;2023-11-18T08:32:13;6.97;;;5.10;;
9449;SDS011;4763;48.370;10.874;2023-11-18T08:34:40;8.27;;;4.93;;
9449;SDS011;4763;48.370;10.874;2023-11-18T08:37:07;7.17;;;5.03;;
9449;SDS011;4763;48.370;10.874;2023-11-18T08:39:34;6.70;;;4.97;;
9449;SDS011;4763;48.370;10.874;2023-11-18T08:42:03;5.87;;;4.67;;
9449;SDS011;4763;48.370;10.874;2023-11-18T08:44:32;7.20;;;5.47;;
9449;SDS011;4763;48.370;10.874;2023-11-18T08:46:59;7.00;;;4.73;;
9449;SDS011;4763;48.370;10.874;2023-11-18T08:49:31;5.67;;;4.87;;
9449;SDS011;4763;48.370;10.874;2023-11-18T08:51:59;6.67;;;4.87;;
9449;SDS011;4763;48.370;10.874;2023-11-18T08:54:26;6.80;;;4.77;;
9449;SDS011;4763;48.370;10.874;2023-11-18T08:57:03;8.63;;;5.00;;
9449;SDS011;4763;48.370;10.874;2023-11-18T08:59:40;6.10;;;5.13;;
9449;SDS011;4763;48.370;10.874;2023-11-18T09:02:07;6.00;;;4.70;;
9449;SDS011;4763;48.370;10.874;2023-11-18T09:04:40;6.00;;;4.50;;
9449;SDS011;4763;48.370;10.874;2023-11-18T09:07:08;4.93;;;4.13;;
9449;SDS011;4763;48.370;10.874;2023-11-18T09:09:36;5.87;;;4.53;;
9449;SDS011;4763;48.370;10.874;2023-11-18T09:12:06;8.23;;;4.57;;
9449;SDS011;4763;48.370;10.874;2023-11-18T09:14:34;5.93;;;4.47;;
9449;SDS011;4763;48.370;10.874;2023-11-18T09:17:01;5.73;;;4.00;;
9449;SDS011;4763;48.370;10.874;2023-11-18T09:19:28;5.93;;;4.67;;
9449;SDS011;4763;48.370;10.874;2023-11-18T09:21:54;5.90;;;4.40;;
9449;SDS011;4763;48.370;10.874;2023-11-18T09:24:21;5.87;;;4.27;;
9449;SDS011;4763;48.370;10.874;2023-11-18T09:26:50;5.07;;;4.20;;
9449;SDS011;4763;48.370;10.874;2023-11-18T09:29:18;5.07;;;4.50;;
9449;SDS011;4763;48.370;10.874;2023-11-18T09:31:49;4.87;;;3.93;;
9449;SDS011;4763;48.370;10.874;2023-11-18T09:34:17;4.57;;;4.10;;
9449;SDS011;4763;48.370;10.874;2023-11-18T09:36:52;8.67;;;4.20;;
9449;SDS011;4763;48.370;10.874;2023-11-18T09:39:19;4.53;;;3.70;;
9449;SDS011;4763;48.370;10.874;2023-11-18T09:42:02;4.60;;;4.07;;
9449;SDS011;4763;48.370;10.874;2023-11-18T09:44:35;6.93;;;4.40;;
9449;SDS011;4763;48.370;10.874;2023-11-18T09:47:03;5.10;;;4.17;;
9449;SDS011;4763;48.370;10.874;2023-11-18T09:49:39;4.87;;;4.20;;
9449;SDS011;4763;48.370;10.874;2023-11-18T09:52:07;4.43;;;4.03;;
9449;SDS011;4763;48.370;10.874;2023-11-18T09:54:39;4.93;;;4.27;;
9449;SDS011;4763;48.370;10.874;2023-11-18T09:57:13;4.40;;;4.00;;
9449;SDS011;4763;48.370;10.874;2023-11-18T09:59:51;4.50;;;3.63;;
9449;SDS011;4763;48.370;10.874;2023-11-18T10:02:24;4.03;;;3.47;;
9449;SDS011;4763;48.370;10.874;2023-11-18T10:04:51;3.87;;;3.47;;
9449;SDS011;4763;48.370;10.874;2023-11-18T10:07:22;4.23;;;3.70;;
9449;SDS011;4763;48.370;10.874;2023-11-18T10:09:52;4.37;;;3.33;;
9449;SDS011;4763;48.370;10.874;2023-11-18T10:12:22;5.23;;;4.03;;
9449;SDS011;4763;48.370;10.874;2023-11-18T10:14:53;6.13;;;4.33;;
9449;SDS011;4763;48.370;10.874;2023-11-18T10:17:21;5.40;;;3.50;;
9449;SDS011;4763;48.370;10.874;2023-11-18T10:19:52;4.47;;;3.67;;
9449;SDS011;4763;48.370;10.874;2023-11-18T10:22:21;4.93;;;3.57;;
9449;SDS011;4763;48.370;10.874;2023-11-18T10:24:51;5.73;;;3.43;;
9449;SDS011;4763;48.370;10.874;2023-11-18T10:27:20;4.10;;;3.60;;
9449;SDS011;4763;48.370;10.874;2023-11-18T10:29:50;5.23;;;3.53;;
9449;SDS011;4763;48.370;10.874;2023-11-18T10:32:23;4.30;;;3.53;;
9449;SDS011;4763;48.370;10.874;2023-11-18T10:34:53;3.63;;;3.07;;
9449;SDS011;4763;48.370;10.874;2023-11-18T10:37:21;4.00;;;3.60;;
9449;SDS011;4763;48.370;10.874;2023-11-18T10:39:49;5.67;;;3.53;;
9449;SDS011;4763;48.370;10.874;2023-11-18T10:42:18;3.93;;;3.23;;
9449;SDS011;4763;48.370;10.874;2023-11-18T10:44:54;3.57;;;3.27;;
9449;SDS011;4763;48.370;10.874;2023-11-18T10:47:23;5.60;;;4.90;;
9449;SDS011;4763;48.370;10.874;2023-11-18T10:49:52;6.03;;;4.70;;
9449;SDS011;4763;48.370;10.874;2023-11-18T10:52:21;4.73;;;4.23;;
9449;SDS011;4763;48.370;10.874;2023-11-18T10:54:51;8.47;;;5.93;;
9449;SDS011;4763;48.370;10.874;2023-11-18T10:57:20;7.63;;;4.47;;
9449;SDS011;4763;48.370;10.874;2023-11-18T11:00:01;4.70;;;2.80;;
9449;SDS011;4763;48.370;10.874;2023-11-18T11:02:38;6.50;;;4.07;;
9449;SDS011;4763;48.370;10.874;2023-11-18T11:05:06;3.67;;;3.00;;
9449;SDS011;4763;48.370;10.874;2023-11-18T11:07:40;7.20;;;4.20;;
9449;SDS011;4763;48.370;10.874;2023-11-18T11:10:09;5.43;;;4.37;;
9449;SDS011;4763;48.370;10.874;2023-11-18T11:12:43;12.73;;;4.87;;
9449;SDS011;4763;48.370;10.874;2023-11-18T11:15:20;5.20;;;3.73;;
9449;SDS011;4763;48.370;10.874;2023-11-18T11:17:51;6.67;;;4.10;;
9449;SDS011;4763;48.370;10.874;2023-11-18T11:20:22;4.20;;;3.77;;
9449;SDS011;4763;48.370;10.874;2023-11-18T11:22:56;3.90;;;3.20;;
9449;SDS011;4763;48.370;10.874;2023-11-18T11:25:35;5.20;;;4.03;;
9449;SDS011;4763;48.370;10.874;2023-11-18T11:28:10;5.97;;;3.20;;
9449;SDS011;4763;48.370;10.874;2023-11-18T11:30:44;4.63;;;3.30;;
9449;SDS011;4763;48.370;10.874;2023-11-18T11:33:14;4.50;;;2.57;;
9449;SDS011;4763;48.370;10.874;2023-11-18T11:35:48;3.10;;;2.60;;
9449;SDS011;4763;48.370;10.874;2023-11-18T11:38:22;2.63;;;2.40;;
9449;SDS011;4763;48.370;10.874;2023-11-18T11:40:50;3.10;;;2.47;;
9449;SDS011;4763;48.370;10.874;2023-11-18T11:43:20;2.70;;;2.20;;
9449;SDS011;4763;48.370;10.874;2023-11-18T11:45:49;2.40;;;2.20;;
9449;SDS011;4763;48.370;10.874;2023-11-18T11:48:25;3.20;;;2.67;;
9449;SDS011;4763;48.370;10.874;2023-11-18T11:50:55;4.83;;;2.63;;
9449;SDS011;4763;48.370;10.874;2023-11-18T11:53:30;2.67;;;2.40;;
9449;SDS011;4763;48.370;10.874;2023-11-18T11:56:01;3.37;;;1.97;;
9449;SDS011;4763;48.370;10.874;2023-11-18T11:58:32;3.67;;;2.80;;
9449;SDS011;4763;48.370;10.874;2023-11-18T12:01:15;2.73;;;2.50;;
9449;SDS011;4763;48.370;10.874;2023-11-18T12:03:48;2.50;;;2.30;;
9449;SDS011;4763;48.370;10.874;2023-11-18T12:06:25;2.67;;;1.93;;
9449;SDS011;4763;48.370;10.874;2023-11-18T12:08:53;2.97;;;2.20;;
9449;SDS011;4763;48.370;10.874;2023-11-18T12:11:20;2.40;;;2.20;;
9449;SDS011;4763;48.370;10.874;2023-11-18T12:14:00;5.00;;;2.57;;
9449;SDS011;4763;48.370;10.874;2023-11-18T12:19:34;3.00;;;2.20;;
9449;SDS011;4763;48.370;10.874;2023-11-18T12:22:10;2.53;;;2.33;;
9449;SDS011;4763;48.370;10.874;2023-11-18T12:24:43;4.77;;;2.37;;
9449;SDS011;4763;48.370;10.874;2023-11-18T12:27:42;3.67;;;2.60;;
9449;SDS011;4763;48.370;10.874;2023-11-18T12:33:18;2.67;;;1.73;;
9449;SDS011;4763;48.370;10.874;2023-11-18T12:42:20;2.57;;;2.13;;
9449;SDS011;4763;48.370;10.874;2023-11-18T12:45:25;3.37;;;2.10;;
9449;SDS011;4763;48.370;10.874;2023-11-18T12:48:09;2.40;;;2.07;;
9449;SDS011;4763;48.370;10.874;2023-11-18T12:50:42;3.43;;;2.13;;
9449;SDS011;4763;48.370;10.874;2023-11-18T12:53:11;2.07;;;1.73;;
9449;SDS011;4763;48.370;10.874;2023-11-18T12:55:40;2.50;;;1.87;;
9449;SDS011;4763;48.370;10.874;2023-11-18T12:58:07;2.50;;;1.80;;
9449;SDS011;4763;48.370;10.874;2023-11-18T13:00:36;3.47;;;1.90;;
9449;SDS011;4763;48.370;10.874;2023-11-18T13:03:08;3.20;;;1.93;;
9449;SDS011;4763;48.370;10.874;2023-11-18T13:05:36;2.00;;;1.83;;
9449;SDS011;4763;48.370;10.874;2023-11-18T13:08:04;4.10;;;2.00;;
9449;SDS011;4763;48.370;10.874;2023-11-18T13:10:32;2.53;;;1.80;;
9449;SDS011;4763;48.370;10.874;2023-11-18T13:12:59;2.33;;;1.97;;
9449;SDS011;4763;48.370;10.874;2023-11-18T13:15:26;3.30;;;1.87;;
9449;SDS011;4763;48.370;10.874;2023-11-18T13:17:58;2.40;;;2.00;;
9449;SDS011;4763;48.370;10.874;2023-11-18T13:20:31;2.00;;;1.77;;
9449;SDS011;4763;48.370;10.874;2023-11-18T13:23:00;4.03;;;1.97;;
9449;SDS011;4763;48.370;10.874;2023-11-18T13:25:34;6.17;;;2.80;;
9449;SDS011;4763;48.370;10.874;2023-11-18T13:28:04;1.83;;;1.63;;
9449;SDS011;4763;48.370;10.874;2023-11-18T13:30:31;2.13;;;1.77;;
9449;SDS011;4763;48.370;10.874;2023-11-18T13:32:59;3.53;;;1.93;;
9449;SDS011;4763;48.370;10.874;2023-11-18T13:35:27;4.00;;;1.60;;
9449;SDS011;4763;48.370;10.874;2023-11-18T13:37:54;1.77;;;1.67;;
9449;SDS011;4763;48.370;10.874;2023-11-18T13:40:23;2.87;;;1.87;;
9449;SDS011;4763;48.370;10.874;2023-11-18T13:43:02;1.70;;;1.60;;
9449;SDS011;4763;48.370;10.874;2023-11-18T13:45:30;3.77;;;1.67;;
9449;SDS011;4763;48.370;10.874;2023-11-18T13:47:59;3.87;;;1.60;;
9449;SDS011;4763;48.370;10.874;2023-11-18T13:50:27;2.30;;;1.43;;
9449;SDS011;4763;48.370;10.874;2023-11-18T13:52:54;2.13;;;1.13;;
9449;SDS011;4763;48.370;10.874;2023-11-18T13:55:22;1.93;;;1.50;;
9449;SDS011;4763;48.370;10.874;2023-11-18T13:57:53;2.53;;;1.40;;
9449;SDS011;4763;48.370;10.874;2023-11-18T14:00:23;1.90;;;1.77;;
9449;SDS011;4763;48.370;10.874;2023-11-18T14:02:53;2.73;;;1.70;;
9449;SDS011;4763;48.370;10.874;2023-11-18T14:05:21;4.23;;;1.93;;
9449;SDS011;4763;48.370;10.874;2023-11-18T14:07:49;2.13;;;1.67;;
9449;SDS011;4763;48.370;10.874;2023-11-18T14:10:16;3.97;;;1.87;;
9449;SDS011;4763;48.370;10.874;2023-11-18T14:13:00;3.77;;;1.60;;
9449;SDS011;4763;48.370;10.874;2023-11-18T14:15:30;3.43;;;1.70;;
9449;SDS011;4763;48.370;10.874;2023-11-18T14:18:00;2.07;;;1.40;;
9449;SDS011;4763;48.370;10.874;2023-11-18T14:20:27;3.17;;;1.50;;
9449;SDS011;4763;48.370;10.874;2023-11-18T14:22:56;3.03;;;2.00;;
9449;SDS011;4763;48.370;10.874;2023-11-18T14:25:23;2.10;;;1.90;;
9449;SDS011;4763;48.370;10.874;2023-11-18T14:27:50;2.53;;;1.67;;
9449;SDS011;4763;48.370;10.874;2023-11-18T14:30:17;4.40;;;1.80;;
9449;SDS011;4763;48.370;10.874;2023-11-18T14:32:46;2.53;;;1.60;;
9449;SDS011;4763;48.370;10.874;2023-11-18T14:35:13;2.60;;;1.30;;
9449;SDS011;4763;48.370;10.874;2023-11-18T14:37:42;4.37;;;1.90;;
9449;SDS011;4763;48.370;10.874;2023-11-18T14:40:10;2.53;;;1.77;;
9449;SDS011;4763;48.370;10.874;2023-11-18T14:42:39;4.13;;;2.50;;
9449;SDS011;4763;48.370;10.874;2023-11-18T14:45:08;4.07;;;2.40;;
9449;SDS011;4763;48.370;10.874;2023-11-18T14:47:34;32.57;;;18.23;;
9449;SDS011;4763;48.370;10.874;2023-11-18T14:50:02;19.27;;;10.87;;
9449;SDS011;4763;48.370;10.874;2023-11-18T14:52:30;6.90;;;4.13;;
9449;SDS011;4763;48.370;10.874;2023-11-18T14:54:57;6.17;;;3.57;;
9449;SDS011;4763;48.370;10.874;2023-11-18T14:57:24;4.07;;;2.70;;
9449;SDS011;4763;48.370;10.874;2023-11-18T14:59:51;5.67;;;3.60;;
9449;SDS011;4763;48.370;10.874;2023-11-18T15:02:17;4.03;;;3.07;;
9449;SDS011;4763;48.370;10.874;2023-11-18T15:04:44;3.77;;;2.93;;
9449;SDS011;4763;48.370;10.874;2023-11-18T15:07:13;3.20;;;2.27;;
9449;SDS011;4763;48.370;10.874;2023-11-18T15:09:39;9.67;;;5.20;;
9449;SDS011;4763;48.370;10.874;2023-11-18T15:12:07;5.70;;;3.50;;
9449;SDS011;4763;48.370;10.874;2023-11-18T15:14:36;5.07;;;3.30;;
9449;SDS011;4763;48.370;10.874;2023-11-18T15:17:03;4.90;;;2.70;;
9449;SDS011;4763;48.370;10.874;2023-11-18T15:19:29;5.33;;;3.87;;
9449;SDS011;4763;48.370;10.874;2023-11-18T15:21:58;10.40;;;5.97;;
9449;SDS011;4763;48.370;10.874;2023-11-18T15:24:26;10.50;;;5.77;;